createdAt,value
2023-01-21T00:02:13.474Z,40.48
2023-01-21T00:04:42.112Z,40.50
2023-01-21T00:07:10.774Z,40.42
2023-01-21T00:09:40.817Z,40.50
2023-01-21T00:12:09.478Z,40.53
2023-01-21T00:14:38.288Z,40.45
2023-01-21T00:17:06.959Z,40.45
2023-01-21T00:19:35.668Z,40.44
2023-01-21T00:22:04.321Z,40.40
2023-01-21T00:24:32.933Z,40.38
2023-01-21T00:27:02.984Z,40.37
2023-01-21T00:29:31.659Z,40.34
2023-01-21T00:32:00.212Z,40.33
2023-01-21T00:34:28.909Z,40.33
2023-01-21T00:36:57.578Z,40.28
2023-01-21T00:39:26.062Z,40.36
2023-01-21T00:41:54.630Z,40.28
2023-01-21T00:44:24.689Z,40.17
2023-01-21T00:46:53.260Z,40.15
2023-01-21T00:49:21.800Z,40.27
2023-01-21T00:51:50.530Z,40.27
2023-01-21T00:54:19.259Z,40.24
2023-01-21T00:56:47.912Z,40.15
2023-01-21T00:59:16.847Z,40.21
2023-01-21T01:01:46.998Z,40.10
2023-01-21T01:04:15.599Z,40.14
2023-01-21T01:06:44.286Z,40.09
2023-01-21T01:09:13.046Z,40.18
2023-01-21T01:11:41.622Z,40.22
2023-01-21T01:14:10.223Z,40.08
2023-01-21T01:16:38.825Z,40.02
2023-01-21T01:19:08.811Z,39.97
2023-01-21T01:21:37.614Z,40.06
2023-01-21T01:24:06.881Z,40.11
2023-01-21T01:26:36.527Z,39.97
2023-01-21T01:29:05.309Z,39.97
2023-01-21T01:31:34.033Z,40.04
2023-01-21T01:34:02.659Z,39.99
2023-01-21T01:36:32.864Z,39.89
2023-01-21T01:39:01.567Z,39.96
2023-01-21T01:41:31.012Z,39.88
2023-01-21T01:44:00.961Z,39.97
2023-01-21T01:46:30.748Z,39.91
2023-01-21T01:49:05.513Z,39.83
2023-01-21T01:51:42.547Z,39.75
2023-01-21T01:54:11.087Z,39.87
2023-01-21T01:56:40.379Z,39.91
2023-01-21T01:59:09.089Z,39.79
2023-01-21T02:01:38.024Z,39.80
2023-01-21T02:04:08.063Z,39.69
2023-01-21T02:06:38.025Z,39.88
2023-01-21T02:09:06.614Z,39.88
2023-01-21T02:11:35.170Z,39.87
2023-01-21T02:14:04.002Z,39.72
2023-01-21T02:16:51.788Z,39.77
2023-01-21T02:20:28.103Z,39.83
2023-01-21T02:23:02.583Z,39.85
2023-01-21T02:26:21.961Z,39.59
2023-01-21T02:29:27.920Z,39.88
2023-01-21T02:32:23.259Z,39.57
2023-01-21T02:34:54.476Z,39.90
2023-01-21T02:37:26.040Z,39.68
2023-01-21T02:40:10.859Z,39.70
2023-01-21T02:42:45.291Z,39.56
2023-01-21T02:45:28.384Z,39.56
2023-01-21T02:48:06.188Z,39.63
2023-01-21T02:50:37.205Z,39.53
2023-01-21T02:53:06.155Z,39.64
2023-01-21T02:55:37.324Z,39.64
2023-01-21T02:58:07.338Z,39.59
2023-01-21T03:00:45.958Z,39.57
2023-01-21T03:03:41.312Z,39.63
2023-01-21T03:06:30.305Z,39.57
2023-01-21T03:09:01.342Z,39.50
2023-01-21T03:11:29.883Z,39.49
2023-01-21T03:14:18.981Z,39.53
2023-01-21T03:17:00.589Z,39.55
2023-01-21T03:19:36.359Z,39.32
2023-01-21T03:22:09.656Z,39.44
2023-01-21T03:24:39.046Z,39.45
2023-01-21T03:27:10.067Z,39.53
2023-01-21T03:29:38.730Z,39.48
2023-01-21T03:32:09.436Z,39.42
2023-01-21T03:34:42.824Z,39.54
2023-01-21T03:37:15.703Z,39.42
2023-01-21T03:39:48.400Z,39.36
2023-01-21T03:42:17.765Z,39.36
2023-01-21T03:44:46.583Z,39.29
2023-01-21T03:47:21.372Z,39.37
2023-01-21T03:49:51.786Z,39.40
2023-01-21T03:52:22.233Z,39.35
2023-01-21T03:54:50.917Z,39.28
2023-01-21T03:57:19.515Z,39.40
2023-01-21T03:59:48.144Z,39.27
2023-01-21T04:02:20.283Z,39.33
2023-01-21T04:04:49.250Z,39.28
2023-01-21T04:07:18.260Z,39.20
2023-01-21T04:09:49.847Z,39.26
2023-01-21T04:12:18.784Z,39.15
2023-01-21T04:14:47.397Z,39.16
2023-01-21T04:17:15.875Z,39.26
2023-01-21T04:19:44.572Z,39.30
2023-01-21T04:22:13.076Z,39.17
2023-01-21T04:24:41.599Z,39.13
2023-01-21T04:27:11.721Z,39.17
2023-01-21T04:29:40.339Z,39.01
2023-01-21T04:32:08.956Z,39.11
2023-01-21T04:34:37.494Z,39.03
2023-01-21T04:37:06.157Z,39.07
2023-01-21T04:39:34.730Z,39.19
2023-01-21T04:42:03.504Z,39.02
2023-01-21T04:44:33.578Z,38.98
2023-01-21T04:47:02.208Z,38.94
2023-01-21T04:49:30.813Z,38.96
2023-01-21T04:51:59.513Z,39.16
2023-01-21T04:54:28.220Z,39.08
2023-01-21T04:56:57.037Z,39.04
2023-01-21T04:59:25.596Z,38.98
2023-01-21T05:01:55.714Z,38.86
2023-01-21T05:04:24.387Z,38.93
2023-01-21T05:06:53.232Z,39.05
2023-01-21T05:09:21.816Z,38.96
2023-01-21T05:11:50.688Z,38.90
2023-01-21T05:14:19.200Z,38.92
2023-01-21T05:16:48.099Z,38.94
2023-01-21T05:19:18.172Z,38.93
2023-01-21T05:21:46.769Z,38.92
2023-01-21T05:24:15.292Z,38.89
2023-01-21T05:26:44.472Z,38.80
2023-01-21T05:29:13.075Z,38.84
2023-01-21T05:31:41.849Z,38.74
2023-01-21T05:34:10.553Z,38.81
2023-01-21T05:36:40.462Z,38.76
2023-01-21T05:39:09.183Z,38.71
2023-01-21T05:41:37.819Z,38.87
2023-01-21T05:44:06.835Z,38.90
2023-01-21T05:46:35.460Z,38.78
2023-01-21T05:49:04.191Z,38.86
2023-01-21T05:51:32.883Z,38.69
2023-01-21T05:54:02.941Z,38.70
2023-01-21T05:56:31.727Z,38.69
2023-01-21T05:59:00.306Z,38.81
2023-01-21T06:01:28.869Z,38.79
2023-01-21T06:03:57.610Z,38.61
2023-01-21T06:06:26.534Z,38.53
2023-01-21T06:08:55.003Z,38.64
2023-01-21T06:11:24.994Z,38.54
2023-01-21T06:13:53.523Z,38.62
2023-01-21T06:16:22.265Z,38.58
2023-01-21T06:18:50.991Z,38.68
2023-01-21T06:21:19.670Z,38.81
2023-01-21T06:23:48.251Z,38.95
2023-01-21T06:26:16.906Z,38.92
2023-01-21T06:28:49.931Z,39.12
2023-01-21T06:31:18.695Z,39.23
2023-01-21T06:33:47.296Z,39.21
2023-01-21T06:36:16.067Z,39.31
2023-01-21T06:38:44.679Z,39.49
2023-01-21T06:41:13.318Z,39.61
2023-01-21T06:43:42.074Z,39.72
2023-01-21T06:46:12.396Z,40.04
2023-01-21T06:48:41.025Z,39.97
2023-01-21T06:51:10.194Z,40.75
2023-01-21T06:53:40.181Z,40.88
2023-01-21T06:56:09.080Z,40.43
2023-01-21T06:58:37.822Z,40.20
2023-01-21T07:01:06.720Z,41.18
2023-01-21T07:03:36.723Z,41.37
2023-01-21T07:06:05.647Z,41.32
2023-01-21T07:08:34.288Z,41.48
2023-01-21T07:11:03.015Z,41.26
2023-01-21T07:13:31.784Z,41.83
2023-01-21T07:16:06.685Z,41.06
2023-01-21T07:18:36.890Z,41.09
2023-01-21T07:21:05.782Z,41.00
2023-01-21T07:23:34.403Z,41.21
2023-01-21T07:26:03.063Z,41.24
2023-01-21T07:28:31.770Z,42.04
2023-01-21T07:31:00.880Z,41.98
2023-01-21T07:33:29.708Z,41.44
2023-01-21T07:35:59.782Z,41.78
2023-01-21T07:38:28.365Z,41.87
2023-01-21T07:40:56.872Z,41.64
2023-01-21T07:43:27.632Z,41.71
2023-01-21T07:45:58.578Z,41.25
2023-01-21T07:48:28.640Z,41.21
2023-01-21T07:50:59.877Z,41.06
2023-01-21T07:53:28.794Z,41.15
2023-01-21T07:55:57.432Z,41.11
2023-01-21T07:58:26.108Z,40.96
2023-01-21T08:00:54.692Z,40.89
2023-01-21T08:03:25.202Z,40.79
2023-01-21T08:05:53.859Z,40.81
2023-01-21T08:08:23.987Z,40.82
2023-01-21T08:10:53.626Z,40.77
2023-01-21T08:13:22.321Z,40.69
2023-01-21T08:15:52.123Z,40.68
2023-01-21T08:18:22.333Z,40.62
2023-01-21T08:20:55.264Z,40.54
2023-01-21T08:23:25.451Z,40.55
2023-01-21T08:25:54.183Z,40.45
2023-01-21T08:28:22.799Z,40.47
2023-01-21T08:30:51.531Z,40.44
2023-01-21T08:33:20.099Z,40.47
2023-01-21T08:35:48.744Z,40.37
2023-01-21T08:38:17.417Z,40.33
2023-01-21T08:40:47.346Z,40.25
2023-01-21T08:43:15.931Z,40.28
2023-01-21T08:45:44.812Z,40.23
2023-01-21T08:48:13.605Z,40.25
2023-01-21T08:50:42.253Z,40.18
2023-01-21T08:53:11.741Z,40.12
2023-01-21T08:55:40.376Z,40.13
2023-01-21T08:58:10.287Z,40.11
2023-01-21T09:00:39.125Z,40.10
2023-01-21T09:03:07.801Z,40.01
2023-01-21T09:05:36.519Z,40.09
2023-01-21T09:08:05.302Z,39.88
2023-01-21T09:10:52.650Z,39.90
2023-01-21T09:13:22.809Z,39.97
2023-01-21T09:15:51.473Z,39.90
2023-01-21T09:18:20.146Z,40.19
2023-01-21T09:20:49.005Z,39.87
2023-01-21T09:23:26.341Z,39.85
2023-01-21T09:25:56.647Z,39.87
2023-01-21T09:28:26.725Z,39.70
2023-01-21T09:30:58.496Z,39.66
2023-01-21T09:33:27.428Z,39.74
2023-01-21T09:35:56.624Z,39.66
2023-01-21T09:38:25.459Z,39.79
2023-01-21T09:40:55.022Z,39.42
2023-01-21T09:43:27.531Z,39.58
2023-01-21T09:45:58.449Z,39.67
2023-01-21T09:48:30.141Z,39.70
2023-01-21T09:50:59.317Z,39.61
2023-01-21T09:53:33.273Z,39.48
2023-01-21T09:56:02.935Z,39.42
2023-01-21T09:58:36.878Z,39.62
2023-01-21T10:01:09.444Z,39.63
2023-01-21T10:03:43.112Z,39.51
2023-01-21T10:06:21.236Z,39.41
2023-01-21T10:09:24.516Z,39.35
2023-01-21T10:12:34.936Z,39.46
2023-01-21T10:15:28.669Z,39.29
2023-01-21T10:17:58.926Z,39.25
2023-01-21T10:20:29.866Z,39.42
2023-01-21T10:23:01.313Z,39.27
2023-01-21T10:25:32.030Z,39.28
2023-01-21T10:28:05.265Z,39.17
2023-01-21T10:30:38.179Z,39.21
2023-01-21T10:33:07.603Z,39.21
2023-01-21T10:35:48.166Z,39.13
2023-01-21T10:38:20.572Z,39.17
2023-01-21T10:40:55.814Z,39.19
2023-01-21T10:43:33.335Z,39.15
2023-01-21T10:46:09.154Z,39.05
2023-01-21T10:48:41.879Z,39.16
2023-01-21T10:51:15.295Z,39.01
2023-01-21T10:53:46.963Z,39.03
2023-01-21T10:56:21.547Z,38.99
2023-01-21T10:58:51.874Z,39.10
2023-01-21T11:01:24.642Z,38.93
2023-01-21T11:03:54.589Z,38.94
2023-01-21T11:06:24.048Z,39.04
2023-01-21T11:08:56.064Z,38.96
2023-01-21T11:11:28.543Z,38.91
2023-01-21T11:13:57.338Z,38.88
2023-01-21T11:16:54.291Z,38.88
2023-01-21T11:19:24.927Z,38.91
2023-01-21T11:22:01.692Z,38.95
2023-01-21T11:24:30.964Z,38.87
2023-01-21T11:27:00.999Z,38.82
2023-01-21T11:29:40.170Z,38.85
2023-01-21T11:32:18.745Z,38.94
2023-01-21T11:34:47.778Z,38.83
2023-01-21T11:37:23.486Z,38.59
2023-01-21T11:39:55.104Z,38.75
2023-01-21T11:42:23.932Z,38.82
2023-01-21T11:44:55.061Z,38.76
2023-01-21T11:47:39.130Z,38.68
2023-01-21T11:50:17.154Z,38.66
2023-01-21T11:52:46.223Z,38.69
2023-01-21T11:55:25.090Z,38.54
2023-01-21T11:57:55.074Z,38.65
2023-01-21T12:00:27.148Z,38.71
2023-01-21T12:02:58.936Z,38.57
2023-01-21T12:05:32.200Z,38.54
2023-01-21T12:08:00.874Z,38.60
2023-01-21T12:10:32.367Z,38.59
2023-01-21T12:13:26.091Z,38.57
2023-01-21T12:16:25.305Z,38.62
2023-01-21T12:19:16.601Z,38.60
2023-01-21T12:22:00.112Z,38.57
2023-01-21T12:24:43.701Z,38.47
2023-01-21T12:27:18.556Z,38.57
2023-01-21T12:29:56.773Z,38.43
2023-01-21T12:32:27.710Z,38.59
2023-01-21T12:35:02.258Z,38.36
2023-01-21T12:37:33.576Z,38.46
2023-01-21T12:40:06.828Z,38.45
2023-01-21T12:42:37.830Z,38.39
2023-01-21T12:45:08.896Z,38.36
2023-01-21T12:47:41.576Z,38.29
2023-01-21T12:50:23.522Z,38.43
2023-01-21T12:53:06.549Z,38.21
2023-01-21T12:55:50.650Z,38.41
2023-01-21T12:58:20.528Z,38.34
2023-01-21T13:00:50.730Z,38.35
2023-01-21T13:03:25.712Z,38.31
2023-01-21T13:05:57.890Z,38.32
2023-01-21T13:08:41.496Z,38.26
2023-01-21T13:11:19.496Z,38.28
2023-01-21T13:13:56.032Z,38.29
2023-01-21T13:16:26.131Z,38.22
2023-01-21T13:18:56.700Z,38.20
2023-01-21T13:21:35.397Z,38.27
2023-01-21T13:24:14.563Z,38.28
2023-01-21T13:26:48.140Z,38.11
2023-01-21T13:29:19.790Z,38.20
2023-01-21T13:31:50.330Z,38.24
2023-01-21T13:34:24.135Z,38.20
2023-01-21T13:37:03.938Z,38.11
2023-01-21T13:39:41.289Z,38.28
2023-01-21T13:42:27.165Z,38.11
2023-01-21T13:45:07.633Z,38.15
2023-01-21T13:47:52.068Z,38.10
2023-01-21T13:50:29.668Z,38.05
2023-01-21T13:53:43.426Z,38.22
2023-01-21T13:56:30.131Z,38.02
2023-01-21T13:59:00.350Z,38.00
2023-01-21T14:01:31.202Z,38.14
2023-01-21T14:04:03.341Z,38.05
2023-01-21T14:06:34.904Z,37.98
2023-01-21T14:09:07.148Z,38.07
2023-01-21T14:11:38.821Z,38.09
2023-01-21T14:14:53.664Z,38.03
2023-01-21T14:18:23.106Z,38.06
2023-01-21T14:21:38.298Z,38.08
2023-01-21T14:24:19.415Z,37.83
2023-01-21T14:27:01.096Z,37.99
2023-01-21T14:29:35.301Z,37.89
2023-01-21T14:32:12.866Z,37.96
2023-01-21T14:34:48.985Z,37.99
2023-01-21T14:37:19.998Z,37.90
2023-01-21T14:39:58.152Z,37.93
2023-01-21T14:42:42.635Z,37.92
2023-01-21T14:45:12.908Z,37.88
2023-01-21T14:47:52.101Z,37.99
2023-01-21T14:50:48.634Z,37.86
2023-01-21T14:53:23.655Z,37.81
2023-01-21T14:56:20.378Z,37.88
2023-01-21T14:58:50.514Z,37.82
2023-01-21T15:01:43.988Z,37.85
2023-01-21T15:04:25.911Z,37.92
2023-01-21T15:06:56.730Z,37.90
2023-01-21T15:09:29.683Z,37.72
2023-01-21T15:12:01.591Z,37.84
2023-01-21T15:14:30.836Z,37.80
2023-01-21T15:16:59.435Z,37.83
2023-01-21T15:19:31.382Z,37.75
2023-01-21T15:22:23.227Z,37.79
2023-01-21T15:25:31.602Z,37.82
2023-01-21T15:28:40.625Z,37.64
2023-01-21T15:31:11.328Z,37.73
2023-01-21T15:33:48.725Z,37.85
2023-01-21T15:36:28.570Z,37.74
2023-01-21T15:39:02.485Z,37.82
2023-01-21T15:41:42.688Z,37.80
2023-01-21T15:44:37.065Z,37.79
2023-01-21T15:47:13.433Z,37.68
2023-01-21T15:49:53.230Z,37.75
2023-01-21T15:52:42.010Z,37.79
2023-01-21T15:55:27.918Z,37.63
2023-01-21T15:58:00.723Z,37.68
2023-01-21T16:00:35.567Z,37.66
2023-01-21T16:03:14.046Z,37.71
2023-01-21T16:05:48.903Z,37.70
2023-01-21T16:08:26.302Z,37.87
2023-01-21T16:11:06.693Z,37.59
2023-01-21T16:13:44.944Z,37.76
2023-01-21T16:16:23.983Z,37.59
2023-01-21T16:18:55.433Z,37.68
2023-01-21T16:21:25.762Z,37.72
2023-01-21T16:23:54.912Z,37.66
2023-01-21T16:26:27.000Z,37.65
2023-01-21T16:28:55.878Z,37.55
2023-01-21T16:31:25.941Z,37.55
2023-01-21T16:33:54.917Z,37.63
2023-01-21T16:36:23.609Z,37.58
2023-01-21T16:38:52.351Z,37.62
2023-01-21T16:41:27.700Z,37.55
2023-01-21T16:43:59.422Z,37.54
2023-01-21T16:46:34.833Z,37.63
2023-01-21T16:49:04.948Z,37.52
2023-01-21T16:51:35.258Z,37.63
2023-01-21T16:54:27.456Z,37.54
2023-01-21T16:56:59.059Z,37.48
2023-01-21T16:59:30.256Z,37.45
2023-01-21T17:02:00.718Z,37.44
2023-01-21T17:04:30.765Z,37.48
2023-01-21T17:06:59.575Z,37.50
2023-01-21T17:09:31.540Z,37.44
2023-01-21T17:12:03.395Z,37.39
2023-01-21T17:14:32.089Z,37.45
2023-01-21T17:17:03.817Z,37.41
2023-01-21T17:19:35.379Z,37.61
2023-01-21T17:22:06.537Z,37.41
2023-01-21T17:24:39.141Z,37.45
2023-01-21T17:27:10.264Z,37.48
2023-01-21T17:29:38.837Z,37.36
2023-01-21T17:32:25.999Z,37.54
2023-01-21T17:35:16.857Z,37.32
2023-01-21T17:37:52.364Z,37.51
2023-01-21T17:40:29.576Z,37.39
2023-01-21T17:42:58.948Z,37.57
2023-01-21T17:45:33.826Z,37.73
2023-01-21T17:48:10.176Z,37.50
2023-01-21T17:50:38.985Z,37.59
2023-01-21T17:53:10.108Z,37.55
2023-01-21T17:55:39.111Z,37.49
2023-01-21T17:58:36.311Z,37.50
2023-01-21T18:01:05.482Z,37.43
2023-01-21T18:03:35.582Z,37.54
2023-01-21T18:06:04.319Z,37.39
2023-01-21T18:08:33.184Z,37.58
2023-01-21T18:11:01.950Z,37.55
2023-01-21T18:13:30.712Z,37.59
2023-01-21T18:15:59.428Z,37.44
2023-01-21T18:18:29.253Z,37.39
2023-01-21T18:20:59.297Z,37.43
2023-01-21T18:23:28.047Z,37.50
2023-01-21T18:25:56.668Z,37.42
2023-01-21T18:28:26.712Z,37.47
2023-01-21T18:30:56.971Z,37.37
2023-01-21T18:33:26.173Z,37.44
2023-01-21T18:35:54.891Z,37.39
2023-01-21T18:38:27.556Z,37.42
2023-01-21T18:40:56.582Z,37.48
2023-01-21T18:43:25.637Z,37.34
2023-01-21T18:45:54.900Z,37.49
2023-01-21T18:48:29.554Z,37.22
2023-01-21T18:50:58.219Z,37.29
2023-01-21T18:53:28.360Z,37.09
2023-01-21T18:55:57.224Z,37.45
2023-01-21T18:58:26.140Z,37.50
2023-01-21T19:00:54.818Z,37.53
2023-01-21T19:03:23.863Z,37.21
2023-01-21T19:05:52.535Z,37.48
2023-01-21T19:08:24.814Z,38.15
2023-01-21T19:10:55.040Z,37.56
2023-01-21T19:13:23.781Z,37.68
2023-01-21T19:15:53.552Z,37.76
2023-01-21T19:18:22.532Z,37.81
2023-01-21T19:20:51.598Z,37.82
2023-01-21T19:23:20.348Z,37.91
2023-01-21T19:25:51.733Z,38.34
2023-01-21T19:28:22.223Z,38.39
2023-01-21T19:30:55.432Z,38.73
2023-01-21T19:33:24.478Z,38.96
2023-01-21T19:35:57.236Z,38.95
2023-01-21T19:38:26.478Z,38.88
2023-01-21T19:40:55.965Z,38.65
2023-01-21T19:43:25.974Z,38.55
2023-01-21T19:45:55.891Z,38.62
2023-01-21T19:48:24.553Z,38.49
2023-01-21T19:50:53.296Z,38.53
2023-01-21T19:53:23.321Z,38.66
2023-01-21T19:55:52.074Z,38.71
2023-01-21T19:58:22.570Z,39.20
2023-01-21T20:00:53.793Z,39.12
2023-01-21T20:03:23.966Z,39.34
2023-01-21T20:05:54.119Z,40.01
2023-01-21T20:08:24.306Z,40.36
2023-01-21T20:10:53.119Z,39.88
2023-01-21T20:13:21.720Z,39.66
2023-01-21T20:15:53.054Z,39.91
2023-01-21T20:18:24.624Z,40.55
2023-01-21T20:20:53.524Z,40.74
2023-01-21T20:23:23.692Z,40.57
2023-01-21T20:25:54.620Z,40.46
2023-01-21T20:28:24.783Z,40.31
2023-01-21T20:30:55.671Z,40.32
2023-01-21T20:33:26.520Z,40.21
2023-01-21T20:35:56.075Z,39.80
2023-01-21T20:38:28.408Z,40.03
2023-01-21T20:40:57.061Z,39.96
2023-01-21T20:43:26.018Z,40.01
2023-01-21T20:45:56.377Z,39.89
2023-01-21T20:48:27.371Z,39.69
2023-01-21T20:50:55.997Z,39.66
2023-01-21T20:53:24.595Z,39.92
2023-01-21T20:55:53.686Z,39.85
2023-01-21T20:58:23.077Z,39.73
2023-01-21T21:00:51.901Z,39.65
2023-01-21T21:03:21.905Z,39.63
2023-01-21T21:05:50.796Z,39.56
2023-01-21T21:08:22.481Z,39.56
2023-01-21T21:10:52.909Z,39.38
2023-01-21T21:13:21.740Z,39.27
2023-01-21T21:15:50.327Z,39.43
2023-01-21T21:18:19.064Z,39.35
2023-01-21T21:20:49.150Z,39.27
2023-01-21T21:23:17.891Z,39.28
2023-01-21T21:25:47.847Z,39.32
2023-01-21T21:28:17.610Z,39.17
2023-01-21T21:30:46.255Z,39.28
2023-01-21T21:33:19.060Z,39.12
2023-01-21T21:35:49.858Z,39.16
2023-01-21T21:38:21.839Z,39.10
2023-01-21T21:40:53.061Z,39.15
2023-01-21T21:43:33.367Z,39.18
2023-01-21T21:46:24.335Z,39.11
2023-01-21T21:48:53.189Z,39.18
2023-01-21T21:51:23.387Z,39.03
2023-01-21T21:53:52.219Z,39.10
2023-01-21T21:56:21.945Z,39.32
2023-01-21T21:58:51.564Z,39.03
2023-01-21T22:01:21.436Z,39.02
2023-01-21T22:03:50.081Z,39.07
2023-01-21T22:06:19.046Z,39.18
2023-01-21T22:08:49.153Z,39.20
2023-01-21T22:11:19.163Z,39.16
2023-01-21T22:13:50.228Z,39.08
2023-01-21T22:16:20.848Z,39.13
2023-01-21T22:18:49.828Z,39.13
2023-01-21T22:21:20.267Z,39.16
2023-01-21T22:23:50.265Z,39.05
2023-01-21T22:26:21.505Z,39.17
2023-01-21T22:28:51.332Z,39.18
2023-01-21T22:31:22.711Z,39.07
2023-01-21T22:33:51.359Z,39.18
2023-01-21T22:36:21.183Z,39.06
2023-01-21T22:38:51.215Z,39.01
2023-01-21T22:41:21.051Z,38.97
2023-01-21T22:43:49.931Z,39.17
2023-01-21T22:46:21.081Z,39.20
2023-01-21T22:48:49.873Z,39.16
2023-01-21T22:51:19.738Z,39.02
2023-01-21T22:53:50.744Z,39.10
2023-01-21T22:56:21.215Z,39.15
2023-01-21T22:58:51.963Z,39.15
2023-01-21T23:01:25.406Z,39.21
2023-01-21T23:03:54.124Z,39.08
2023-01-21T23:06:23.197Z,39.12
2023-01-21T23:08:53.173Z,39.17
2023-01-21T23:11:21.887Z,39.10
2023-01-21T23:13:53.402Z,39.07
2023-01-21T23:16:22.122Z,39.03
2023-01-21T23:18:50.864Z,39.01
2023-01-21T23:21:21.397Z,38.98
2023-01-21T23:23:50.426Z,39.07
2023-01-21T23:26:20.631Z,39.06
2023-01-21T23:28:49.627Z,39.02
2023-01-21T23:31:18.839Z,39.05
2023-01-21T23:33:51.109Z,39.02
2023-01-21T23:36:19.983Z,39.03
2023-01-21T23:38:48.810Z,38.94
2023-01-21T23:41:19.831Z,39.00
2023-01-21T23:43:49.855Z,38.94
2023-01-21T23:46:19.806Z,38.99
2023-01-21T23:48:48.694Z,38.91
2023-01-21T23:51:17.732Z,39.03
2023-01-21T23:53:46.674Z,38.89
2023-01-21T23:56:16.567Z,38.88
2023-01-21T23:58:45.407Z,38.89
